Time;durP1;ratioP1;P1;durP2;ratioP2;P2;SDS_P1;SDS_P2;PMS_P1;PMS_P2;Temp;Humidity;BMP_temperature;BMP_pressure;BME280_temperature;BME280_humidity;BME280_pressure;Samples;Min_cycle;Max_cycle;Signal;HPM_P1;HPM_P2
2023/04/30 00:00:36;;;;;;;9.85;4.43;;;;;;;-148.88;100.00;77097.72;5039708;28;20050;-86
2023/04/30 00:03:01;;;;;;;13.23;5.47;;;;;;;-148.88;100.00;77083.50;5022698;28;20060;-85
2023/04/30 00:05:26;;;;;;;13.88;4.43;;;;;;;-148.88;100.00;77077.41;5041147;28;20033;-85
2023/04/30 00:07:54;;;;;;;9.02;4.90;;;;;;;-148.88;100.00;77079.44;5023499;28;20025;-85
2023/04/30 00:10:19;;;;;;;12.57;4.88;;;;;;;-148.88;100.00;77079.44;5023259;28;20391;-86
2023/04/30 00:12:45;;;;;;;10.82;4.60;;;;;;;-148.88;100.00;77079.44;5022965;28;20022;-85
2023/04/30 00:15:11;;;;;;;8.70;3.92;;;;;;;-148.88;100.00;77079.44;5023382;28;20045;-85
2023/04/30 00:17:36;;;;;;;12.43;4.22;;;;;;;-148.88;100.00;77077.41;5023183;28;20025;-86
2023/04/30 00:20:07;;;;;;;7.95;3.97;;;;;;;-148.88;100.00;77077.41;5040291;28;20025;-86
2023/04/30 00:22:33;;;;;;;11.05;4.70;;;;;;;-148.88;100.00;77091.63;5038237;28;20483;-85
2023/04/30 00:25:10;;;;;;;8.90;3.97;;;;;;;-148.88;100.00;77097.72;5036363;28;20026;-85
2023/04/30 00:27:35;;;;;;;8.27;3.70;;;;;;;-148.88;100.00;77126.19;5037733;28;20032;-85
2023/04/30 00:30:01;;;;;;;8.05;3.40;;;;;;;-148.88;100.00;77122.13;5019704;28;20029;-86
2023/04/30 00:32:26;;;;;;;5.88;3.42;;;;;;;-148.88;100.00;77130.25;5021462;28;20026;-86
2023/04/30 00:34:54;;;;;;;9.90;3.33;;;;;;;-148.88;100.00;77130.25;5039416;28;20028;-86
2023/04/30 00:37:19;;;;;;;8.82;3.95;;;;;;;-148.88;100.00;77134.31;5022167;28;20034;-85
2023/04/30 00:39:50;;;;;;;7.32;3.05;;;;;;;-148.88;100.00;77140.41;5039896;28;20180;-86
2023/04/30 00:42:15;;;;;;;7.40;3.80;;;;;;;-148.88;100.00;77148.53;5022138;28;20029;-85
2023/04/30 00:44:43;;;;;;;9.38;3.17;;;;;;;-148.88;100.00;77154.63;5039241;28;20025;-86
2023/04/30 00:47:09;;;;;;;8.82;3.15;;;;;;;-148.88;100.00;77154.63;5022820;28;20395;-86
2023/04/30 00:49:34;;;;;;;7.35;4.50;;;;;;;-148.88;100.00;77168.84;5023311;28;20056;-87
2023/04/30 00:52:00;;;;;;;6.78;2.70;;;;;;;-148.88;100.00;77176.97;5023371;28;20415;-86
2023/04/30 00:54:26;;;;;;;8.88;3.08;;;;;;;-148.88;100.00;77187.13;5025245;28;20048;-85
2023/04/30 00:56:51;;;;;;;8.55;2.80;;;;;;;-148.88;100.00;77187.13;5022904;28;20028;-86
2023/04/30 00:59:19;;;;;;;7.25;3.05;;;;;;;-148.88;100.00;77197.28;5037417;28;20445;-85
2023/04/30 01:01:48;;;;;;;11.98;2.45;;;;;;;-148.88;100.00;77215.59;5018736;28;20064;-86
2023/04/30 01:04:19;;;;;;;6.82;2.90;;;;;;;-148.88;100.00;77211.53;5019830;28;20055;-86
2023/04/30 01:06:47;;;;;;;7.20;2.78;;;;;;;-148.88;100.00;77211.53;5038238;28;20029;-86
2023/04/30 01:09:16;;;;;;;8.00;2.88;;;;;;;-148.88;100.00;77219.66;5038127;28;20021;-86
2023/04/30 01:12:18;;;;;;;4.35;2.50;;;;;;;-148.88;100.00;77221.69;5021443;28;20450;-86
2023/04/30 01:15:48;;;;;;;9.55;2.83;;;;;;;-148.88;100.00;77225.75;5022033;28;20475;-86
2023/04/30 01:18:21;;;;;;;13.45;2.63;;;;;;;-148.88;100.00;77227.78;4956113;28;20074;-86
2023/04/30 01:20:54;;;;;;;5.85;1.90;;;;;;;-148.88;100.00;77227.78;4944165;29;20114;-86
2023/04/30 01:23:47;;;;;;;10.75;3.30;;;;;;;-148.88;100.00;77233.88;5002282;28;20400;-85
2023/04/30 01:26:46;;;;;;;8.82;2.90;;;;;;;-148.88;100.00;77231.84;5022099;28;20030;-86
2023/04/30 01:29:17;;;;;;;5.50;2.50;;;;;;;-148.88;100.00;77235.91;5022487;28;20033;-86
2023/04/30 01:31:45;;;;;;;5.20;2.50;;;;;;;-148.88;100.00;77246.06;5022585;28;20022;-87
2023/04/30 01:34:11;;;;;;;6.35;2.80;;;;;;;-148.88;100.00;77237.94;5037239;28;20117;-85
2023/04/30 01:36:57;;;;;;;10.55;3.28;;;;;;;-148.88;100.00;77237.94;5019160;28;20025;-86
2023/04/30 01:39:40;;;;;;;7.07;2.92;;;;;;;-148.88;100.00;77235.91;5019453;28;20426;-85
2023/04/30 01:42:15;;;;;;;5.70;2.20;;;;;;;-148.88;100.00;77227.78;5020626;28;20036;-86
2023/04/30 01:45:08;;;;;;;7.10;1.70;;;;;;;-148.88;100.00;77223.72;5019940;28;20029;-86
2023/04/30 01:47:49;;;;;;;9.82;2.90;;;;;;;-148.88;100.00;77215.59;5021197;28;20522;-86
2023/04/30 01:50:28;;;;;;;7.93;2.63;;;;;;;-148.88;100.00;77217.63;5039435;28;20093;-86
2023/04/30 01:52:57;;;;;;;9.25;2.63;;;;;;;-148.88;100.00;77227.78;5043306;28;20099;-86
2023/04/30 01:55:41;;;;;;;7.57;2.92;;;;;;;-148.88;100.00;77227.78;5025742;28;20048;-85
2023/04/30 01:58:11;;;;;;;4.75;2.38;;;;;;;-148.88;100.00;77225.75;5025634;28;20025;-86
2023/04/30 02:00:37;;;;;;;10.27;2.28;;;;;;;-148.88;100.00;77235.91;5043789;28;20044;-87
2023/04/30 02:03:02;;;;;;;9.23;2.58;;;;;;;-148.88;100.00;77250.13;5025385;28;20021;-86
2023/04/30 02:05:31;;;;;;;6.35;2.85;;;;;;;-148.88;100.00;77256.22;5026025;28;20021;-86
2023/04/30 02:07:59;;;;;;;7.47;2.30;;;;;;;-148.88;100.00;77248.09;5024851;28;20025;-86
2023/04/30 02:10:28;;;;;;;9.20;2.72;;;;;;;-148.88;100.00;77246.06;5038636;28;20021;-85
2023/04/30 02:12:58;;;;;;;9.40;2.45;;;;;;;-148.88;100.00;77252.16;5039573;28;20056;-85
2023/04/30 02:15:24;;;;;;;5.13;2.30;;;;;;;-148.88;100.00;77268.41;5040680;28;20029;-86
2023/04/30 02:17:50;;;;;;;10.00;2.75;;;;;;;-148.88;100.00;77284.66;5023278;28;20032;-85
2023/04/30 02:20:22;;;;;;;9.38;2.95;;;;;;;-148.88;100.00;77276.53;5041924;28;20151;-87
2023/04/30 02:22:48;;;;;;;7.00;3.00;;;;;;;-148.88;100.00;77274.50;5024569;28;20028;-85
2023/04/30 02:25:16;;;;;;;7.63;3.15;;;;;;;-148.88;100.00;77264.34;5042253;28;20322;-86
2023/04/30 02:27:42;;;;;;;6.43;2.70;;;;;;;-148.88;100.00;77264.34;5026482;28;20025;-87
2023/04/30 02:30:07;;;;;;;13.70;5.30;;;;;;;-148.88;100.00;77260.28;5044034;28;20021;-86
2023/04/30 02:32:35;;;;;;;12.98;3.53;;;;;;;-148.88;100.00;77276.53;5026289;28;20456;-86
2023/04/30 02:35:01;;;;;;;8.57;3.15;;;;;;;-148.88;100.00;77282.63;5026249;28;20385;-87
2023/04/30 02:37:26;;;;;;;9.38;2.97;;;;;;;-148.88;100.00;77288.72;5026350;28;20033;-85
2023/04/30 02:39:57;;;;;;;8.68;3.22;;;;;;;-148.88;100.00;77300.94;5025232;28;20029;-86
2023/04/30 02:42:38;;;;;;;9.93;4.35;;;;;;;-148.88;100.00;77323.28;5025836;28;20021;-86
2023/04/30 02:45:03;;;;;;;6.75;3.03;;;;;;;-148.88;100.00;77305.00;5061372;22;20057;-85
2023/04/30 02:47:29;;;;;;;12.15;3.75;;;;;;;-148.88;100.00;77305.00;5040414;28;20021;-84
2023/04/30 02:49:54;;;;;;;10.73;3.22;;;;;;;-148.88;100.00;77311.09;5021914;28;20033;-84
2023/04/30 02:52:19;;;;;;;10.25;3.83;;;;;;;-148.88;100.00;77321.25;5022148;28;20498;-84
2023/04/30 02:54:45;;;;;;;10.02;3.97;;;;;;;-148.88;100.00;77323.28;5018124;28;20025;-84
2023/04/30 02:57:10;;;;;;;8.77;4.40;;;;;;;-148.88;100.00;77347.66;5020290;28;20459;-87
2023/04/30 02:59:37;;;;;;;11.50;4.18;;;;;;;-148.88;100.00;77345.63;5021075;28;20022;-84
2023/04/30 03:02:02;;;;;;;12.32;4.60;;;;;;;-148.88;100.00;77345.63;5019601;28;20025;-84
2023/04/30 03:04:28;;;;;;;9.70;4.32;;;;;;;-148.88;100.00;77345.63;5037569;28;20120;-84
2023/04/30 03:06:53;;;;;;;7.80;3.47;;;;;;;-148.88;100.00;77357.81;5020804;28;20017;-84
2023/04/30 03:09:18;;;;;;;6.38;3.70;;;;;;;-148.88;100.00;77357.81;5039702;28;20026;-84
2023/04/30 03:11:44;;;;;;;7.72;3.78;;;;;;;-148.88;100.00;77361.88;5023060;28;20410;-84
2023/04/30 03:14:09;;;;;;;11.48;3.38;;;;;;;-148.88;100.00;77372.03;5037979;28;20021;-84
2023/04/30 03:16:35;;;;;;;7.20;3.63;;;;;;;-148.88;100.00;77370.00;5020367;28;20025;-84
2023/04/30 03:19:00;;;;;;;10.73;3.70;;;;;;;-148.88;100.00;77376.13;5038452;28;20029;-84
2023/04/30 03:21:26;;;;;;;9.18;3.30;;;;;;;-148.88;100.00;77378.16;5038532;28;20108;-83
2023/04/30 03:23:51;;;;;;;9.13;3.97;;;;;;;-148.88;100.00;77372.03;5021154;28;20025;-84
2023/04/30 03:26:16;;;;;;;8.45;3.58;;;;;;;-148.88;100.00;77380.19;5039500;28;20033;-85
2023/04/30 03:28:41;;;;;;;6.78;3.55;;;;;;;-148.88;100.00;77384.25;5037846;28;20388;-84
2023/04/30 03:31:07;;;;;;;12.25;3.75;;;;;;;-148.88;100.00;77394.41;5036723;28;20112;-84
2023/04/30 03:33:32;;;;;;;11.48;4.05;;;;;;;-148.88;100.00;77394.41;5037103;28;20032;-84
2023/04/30 03:35:58;;;;;;;7.60;3.50;;;;;;;-148.88;100.00;77390.34;5019854;28;20051;-84
2023/04/30 03:38:23;;;;;;;6.80;3.33;;;;;;;-148.88;100.00;77394.41;5038095;28;20480;-84
2023/04/30 03:40:48;;;;;;;6.13;3.38;;;;;;;-148.88;100.00;77390.34;5019840;28;20419;-85
2023/04/30 03:43:14;;;;;;;8.15;3.33;;;;;;;-148.88;100.00;77396.44;5020825;28;20087;-85
2023/04/30 03:45:39;;;;;;;11.63;3.45;;;;;;;-148.88;100.00;77402.53;5039577;28;20029;-85
2023/04/30 03:48:04;;;;;;;9.10;3.95;;;;;;;-148.88;100.00;77394.41;5037675;28;20039;-85
2023/04/30 03:50:30;;;;;;;9.35;3.88;;;;;;;-148.88;100.00;77398.47;5036015;28;20035;-84
2023/04/30 03:52:55;;;;;;;9.90;3.90;;;;;;;-148.88;100.00;77402.53;5035789;28;20457;-84
2023/04/30 03:55:21;;;;;;;8.02;3.80;;;;;;;-148.88;100.00;77410.66;5017900;28;20032;-86
2023/04/30 03:57:46;;;;;;;9.68;4.00;;;;;;;-148.88;100.00;77412.69;5017210;28;20028;-86
2023/04/30 04:00:15;;;;;;;8.30;3.85;;;;;;;-148.88;100.00;77406.59;5035313;28;20476;-85
2023/04/30 04:02:40;;;;;;;6.25;3.83;;;;;;;-148.88;100.00;77406.59;5017984;28;20030;-87
2023/04/30 04:05:06;;;;;;;8.45;3.72;;;;;;;-148.88;100.00;77410.66;5018780;28;20503;-84
2023/04/30 04:07:32;;;;;;;5.90;3.33;;;;;;;-148.88;100.00;77418.78;5017387;28;20076;-85
2023/04/30 04:09:57;;;;;;;10.07;4.70;;;;;;;-148.88;100.00;77435.03;5016775;28;20542;-86
2023/04/30 04:12:23;;;;;;;8.68;4.57;;;;;;;-148.88;100.00;77422.84;5015972;28;20026;-87
2023/04/30 04:14:48;;;;;;;7.97;3.80;;;;;;;-148.88;100.00;77428.94;5015633;28;20037;-86
2023/04/30 04:17:14;;;;;;;11.10;4.30;;;;;;;-148.88;100.00;77430.97;5015756;28;20029;-85
2023/04/30 04:19:39;;;;;;;9.60;4.20;;;;;;;-148.88;100.00;77424.88;5033781;28;20455;-84
2023/04/30 04:22:05;;;;;;;9.60;4.05;;;;;;;-148.88;100.00;77428.94;5015942;28;20052;-85
2023/04/30 04:24:30;;;;;;;15.48;8.57;;;;;;;-148.88;100.00;77430.97;5015645;28;20373;-86
2023/04/30 04:26:56;;;;;;;8.27;4.22;;;;;;;-148.88;100.00;77428.94;5033590;28;20375;-85
2023/04/30 04:29:22;;;;;;;7.53;4.05;;;;;;;-148.88;100.00;77428.94;5016036;28;20112;-85
2023/04/30 04:31:49;;;;;;;9.88;4.60;;;;;;;-148.88;100.00;77430.97;5034670;28;20033;-85
2023/04/30 04:34:15;;;;;;;12.63;4.80;;;;;;;-148.88;100.00;77435.03;5017667;28;20029;-86
2023/04/30 04:36:40;;;;;;;9.02;4.50;;;;;;;-148.88;100.00;77430.97;5017155;28;20025;-85
2023/04/30 04:39:06;;;;;;;8.15;4.20;;;;;;;-148.88;100.00;77428.94;5017984;28;20029;-87
2023/04/30 04:41:32;;;;;;;15.10;5.75;;;;;;;-148.88;100.00;77439.09;5016861;28;20486;-86
2023/04/30 04:44:00;;;;;;;13.95;4.90;;;;;;;-148.88;100.00;77433.00;5034547;28;20033;-86
2023/04/30 04:46:29;;;;;;;11.27;4.55;;;;;;;-148.88;100.00;77430.97;5017074;28;20061;-86
2023/04/30 04:48:54;;;;;;;13.35;5.30;;;;;;;-148.88;100.00;77430.97;5034759;28;20063;-87
2023/04/30 04:51:20;;;;;;;10.60;4.68;;;;;;;-148.88;100.00;77420.81;5016676;28;20045;-86
2023/04/30 04:53:48;;;;;;;12.25;4.90;;;;;;;-148.88;100.00;77422.84;5016875;28;20029;-86
2023/04/30 04:56:13;;;;;;;16.35;7.18;;;;;;;-148.88;100.00;77418.78;5033966;28;20036;-84
2023/04/30 04:58:40;;;;;;;14.02;5.55;;;;;;;-148.88;100.00;77426.91;5018046;28;20025;-85
2023/04/30 05:01:06;;;;;;;18.23;5.93;;;;;;;-148.88;100.00;77428.94;5017705;28;20030;-84
2023/04/30 05:03:32;;;;;;;13.57;5.70;;;;;;;-148.88;100.00;77435.03;5034317;28;20029;-85
2023/04/30 05:05:58;;;;;;;11.57;6.47;;;;;;;-148.88;100.00;77435.03;5015993;28;20021;-85
2023/04/30 05:08:23;;;;;;;14.35;6.57;;;;;;;-148.88;100.00;77435.03;5033865;28;20486;-86
2023/04/30 05:10:49;;;;;;;16.17;6.90;;;;;;;-148.88;100.00;77435.03;5016081;28;20017;-85
2023/04/30 05:13:14;;;;;;;12.73;6.55;;;;;;;-148.88;100.00;77439.09;5033660;28;20045;-85
2023/04/30 05:15:39;;;;;;;15.20;7.03;;;;;;;-148.88;100.00;77443.16;5033623;28;20068;-86
2023/04/30 05:18:05;;;;;;;17.33;6.78;;;;;;;-148.88;100.00;77433.00;5015557;28;20060;-85
2023/04/30 05:20:30;;;;;;;13.52;6.00;;;;;;;-148.88;100.00;77439.09;5015942;28;20421;-84
2023/04/30 05:22:55;;;;;;;12.45;5.80;;;;;;;-148.88;100.00;77435.03;5033882;28;20119;-82
2023/04/30 05:25:21;;;;;;;15.30;7.00;;;;;;;-148.88;100.00;77437.06;5015874;28;20468;-83
2023/04/30 05:27:46;;;;;;;14.57;6.65;;;;;;;-148.88;100.00;77441.13;5016487;28;20108;-83
2023/04/30 05:30:11;;;;;;;13.68;5.90;;;;;;;-148.88;100.00;77441.13;5015527;28;20055;-85
2023/04/30 05:32:37;;;;;;;12.98;6.30;;;;;;;-148.88;100.00;77424.88;5015567;28;20021;-85
2023/04/30 05:35:02;;;;;;;14.10;6.15;;;;;;;-148.88;100.00;77418.78;5015595;28;20101;-86
2023/04/30 05:37:28;;;;;;;13.57;6.43;;;;;;;-148.88;100.00;77410.66;5033102;28;20056;-84
2023/04/30 05:39:53;;;;;;;13.35;6.15;;;;;;;-148.88;100.00;77402.53;5032884;28;20025;-84
2023/04/30 05:42:21;;;;;;;17.30;5.70;;;;;;;-148.88;100.00;77392.38;5015652;28;20018;-84
2023/04/30 05:44:48;;;;;;;11.95;6.05;;;;;;;-148.88;100.00;77380.19;5033448;28;20403;-84
2023/04/30 05:47:13;;;;;;;21.33;5.72;;;;;;;-148.88;100.00;77370.00;5033373;28;20024;-84
2023/04/30 05:49:38;;;;;;;16.55;6.93;;;;;;;-148.88;100.00;77353.75;5033179;28;20029;-86
2023/04/30 05:52:04;;;;;;;14.75;5.85;;;;;;;-148.88;100.00;77345.63;5033581;28;20021;-85
2023/04/30 05:54:30;;;;;;;10.60;4.63;;;;;;;-148.88;100.00;77329.38;5032818;28;20029;-84
2023/04/30 05:56:55;;;;;;;12.55;5.65;;;;;;;-148.88;100.00;77325.31;5033077;28;20033;-85
2023/04/30 05:59:21;;;;;;;11.68;5.00;;;;;;;-148.88;100.00;77317.19;5032944;28;20033;-84
2023/04/30 06:01:46;;;;;;;15.65;5.28;;;;;;;-148.88;100.00;77305.00;5015780;28;20025;-84
2023/04/30 06:04:12;;;;;;;10.88;4.97;;;;;;;-148.88;100.00;77296.88;5015863;28;20109;-83
2023/04/30 06:06:37;;;;;;;10.90;4.88;;;;;;;-148.88;100.00;77280.59;5033891;28;20085;-83
2023/04/30 06:09:02;;;;;;;12.55;5.28;;;;;;;-148.88;100.00;77268.41;5015968;28;20486;-84
2023/04/30 06:11:28;;;;;;;16.17;5.88;;;;;;;-148.88;100.00;77266.38;5033432;28;20025;-84
2023/04/30 06:13:54;;;;;;;11.45;5.40;;;;;;;-148.88;100.00;77260.28;5015729;28;20017;-83
2023/04/30 06:16:20;;;;;;;11.68;4.45;;;;;;;-148.88;100.00;77248.09;5033486;28;20026;-84
2023/04/30 06:18:45;;;;;;;10.68;4.93;;;;;;;-148.88;100.00;77235.91;5016453;28;20037;-84
2023/04/30 06:21:10;;;;;;;15.93;5.13;;;;;;;-148.88;100.00;77223.72;5033350;28;20061;-83
2023/04/30 06:23:36;;;;;;;14.07;4.57;;;;;;;-148.88;100.00;77217.63;5034774;28;20060;-83
2023/04/30 06:26:02;;;;;;;12.70;4.60;;;;;;;-148.88;100.00;77203.41;5033833;28;20029;-84
2023/04/30 06:28:27;;;;;;;12.00;4.68;;;;;;;-148.88;100.00;77195.25;5033195;28;20021;-83
2023/04/30 06:30:53;;;;;;;9.15;5.32;;;;;;;-148.88;100.00;77181.03;5033740;28;20028;-83
2023/04/30 06:33:19;;;;;;;12.93;5.13;;;;;;;-148.88;100.00;77179.00;5033083;28;20109;-85
2023/04/30 06:35:44;;;;;;;10.43;4.80;;;;;;;-148.88;100.00;77174.94;5033087;28;20068;-83
2023/04/30 06:38:10;;;;;;;10.48;4.40;;;;;;;-148.88;100.00;77170.88;5036045;28;20075;-84
2023/04/30 06:40:35;;;;;;;12.98;4.57;;;;;;;-148.88;100.00;77162.75;5036402;28;20372;-85
2023/04/30 06:43:00;;;;;;;15.65;4.18;;;;;;;-148.88;100.00;77148.53;5018521;28;20026;-85
2023/04/30 06:45:26;;;;;;;22.67;6.15;;;;;;;-148.88;100.00;77142.44;5037542;28;20029;-84
2023/04/30 06:47:52;;;;;;;13.55;4.20;;;;;;;-148.88;100.00;77130.25;5018260;28;20494;-85
2023/04/30 06:50:18;;;;;;;10.75;4.32;;;;;;;-148.88;100.00;77124.16;5018613;28;20018;-84
2023/04/30 06:52:43;;;;;;;15.18;5.03;;;;;;;-148.88;100.00;77109.94;5037328;28;20091;-84
2023/04/30 06:55:08;;;;;;;9.07;4.10;;;;;;;-148.88;100.00;77087.56;5036141;28;20025;-84
2023/04/30 06:57:36;;;;;;;8.43;3.97;;;;;;;-148.88;100.00;77093.66;5036477;28;20065;-84
2023/04/30 07:00:01;;;;;;;7.20;3.20;;;;;;;-148.88;100.00;77101.78;5036873;28;20068;-84
2023/04/30 07:02:26;;;;;;;14.23;3.60;;;;;;;-148.88;100.00;77093.66;5018448;28;20025;-83
2023/04/30 07:04:53;;;;;;;11.88;3.67;;;;;;;-148.88;100.00;77089.59;5036090;28;20041;-84
2023/04/30 07:07:18;;;;;;;8.65;3.40;;;;;;;-148.88;100.00;77079.44;5036570;28;20022;-85
2023/04/30 07:09:43;;;;;;;9.15;3.95;;;;;;;-148.88;100.00;77071.31;5036222;28;20027;-85
2023/04/30 07:12:10;;;;;;;10.20;4.00;;;;;;;-148.88;100.00;77073.34;5035229;28;20025;-85
2023/04/30 07:14:36;;;;;;;10.88;4.10;;;;;;;-148.88;100.00;77061.16;5017850;28;20037;-85
2023/04/30 07:17:01;;;;;;;10.52;3.45;;;;;;;-148.88;100.00;77061.16;5037317;28;20025;-84
2023/04/30 07:19:26;;;;;;;13.80;6.50;;;;;;;-148.88;100.00;77051.00;5036802;28;20483;-84
2023/04/30 07:21:51;;;;;;;8.35;3.50;;;;;;;-148.88;99.76;77038.81;5036921;28;20022;-83
2023/04/30 07:24:17;;;;;;;9.05;3.50;;;;;;;-148.88;99.12;77032.72;5018500;28;20029;-84
2023/04/30 07:26:42;;;;;;;10.15;3.28;;;;;;;-148.88;99.68;77022.56;5017780;28;20557;-85
2023/04/30 07:29:07;;;;;;;26.00;4.45;;;;;;;-148.88;100.00;77008.34;5035125;28;20028;-85
2023/04/30 07:31:33;;;;;;;10.00;3.65;;;;;;;-148.88;100.00;76992.06;5034700;28;20029;-84
2023/04/30 07:33:58;;;;;;;10.02;3.00;;;;;;;-148.88;100.00;76963.63;5035269;28;20048;-87
2023/04/30 07:36:26;;;;;;;14.07;3.30;;;;;;;-148.88;100.00;76961.59;5034763;28;20021;-87
2023/04/30 07:38:51;;;;;;;9.35;3.38;;;;;;;-148.88;99.67;76957.53;5035179;28;20021;-86
2023/04/30 07:41:53;;;;;;;12.85;4.93;;;;;;;-148.88;98.79;76945.34;5034131;28;20372;-86
2023/04/30 07:44:18;;;;;;;12.85;6.20;;;;;;;-148.88;99.47;76933.16;5016435;28;20539;-86
2023/04/30 07:46:44;;;;;;;10.18;3.40;;;;;;;-148.88;98.31;76925.03;5017283;28;20203;-85
2023/04/30 07:49:09;;;;;;;9.45;4.20;;;;;;;-148.88;97.72;76918.94;5015990;28;20395;-87
2023/04/30 07:51:34;;;;;;;15.98;4.78;;;;;;;-148.88;96.73;76923.00;5034398;28;20476;-85
2023/04/30 07:54:00;;;;;;;9.75;3.83;;;;;;;-148.88;96.59;76904.72;5034587;28;20025;-86
2023/04/30 07:56:43;;;;;;;15.38;5.55;;;;;;;-148.88;95.94;76902.69;5034184;28;20025;-83
2023/04/30 07:59:08;;;;;;;10.48;5.07;;;;;;;-148.88;94.04;76902.69;5034851;28;20025;-86
2023/04/30 08:01:34;;;;;;;12.35;3.88;;;;;;;-148.88;95.12;76878.28;5034065;28;20104;-85
2023/04/30 08:03:59;;;;;;;7.28;3.25;;;;;;;-148.88;97.68;76878.28;5034234;28;20460;-86
2023/04/30 08:06:28;;;;;;;8.07;3.38;;;;;;;-148.88;94.21;76890.50;5034668;28;20086;-85
2023/04/30 08:08:53;;;;;;;11.52;3.97;;;;;;;-148.88;96.58;76898.63;5016745;28;20022;-85
2023/04/30 08:11:19;;;;;;;16.88;3.20;;;;;;;-148.88;96.58;76866.09;5034162;28;20044;-85
2023/04/30 08:13:45;;;;;;;11.63;5.45;;;;;;;-148.88;95.89;76849.84;5034134;28;20033;-85
2023/04/30 08:16:10;;;;;;;12.70;5.60;;;;;;;-148.88;92.90;76845.78;5034678;28;20333;-86
2023/04/30 08:18:43;;;;;;;11.02;5.45;;;;;;;-148.88;92.45;76837.66;5034186;28;20083;-86
2023/04/30 08:21:08;;;;;;;13.52;5.55;;;;;;;-148.88;92.06;76829.53;5034207;28;20101;-87
2023/04/30 08:23:33;;;;;;;22.08;3.13;;;;;;;-148.88;87.72;76825.47;5034079;28;20053;-85
2023/04/30 08:25:59;;;;;;;11.57;5.10;;;;;;;-148.88;87.37;76857.97;5034068;28;20029;-86
2023/04/30 08:28:24;;;;;;;9.40;2.90;;;;;;;-148.88;91.25;76823.44;5033987;28;20128;-85
2023/04/30 08:30:50;;;;;;;9.38;3.90;;;;;;;-148.88;92.14;76817.34;5033929;28;20022;-85
2023/04/30 08:33:15;;;;;;;14.02;6.45;;;;;;;-148.88;91.30;76825.47;5017710;28;20036;-83
2023/04/30 08:35:40;;;;;;;11.00;3.83;;;;;;;-148.88;91.42;76819.38;5033879;28;20433;-84
2023/04/30 08:38:05;;;;;;;9.75;5.38;;;;;;;-148.88;90.73;76788.91;5033693;28;20032;-84
2023/04/30 08:40:34;;;;;;;11.35;4.63;;;;;;;-148.88;89.49;76772.66;5033861;28;20032;-84
2023/04/30 08:43:08;;;;;;;14.10;5.03;;;;;;;-148.88;88.35;76752.31;5035165;28;20021;-85
2023/04/30 08:45:35;;;;;;;10.63;5.20;;;;;;;-148.88;85.82;76764.53;5034670;28;20044;-85
2023/04/30 08:48:02;;;;;;;11.93;5.25;;;;;;;-148.88;85.71;76760.44;5034771;28;20111;-84
2023/04/30 08:50:27;;;;;;;11.52;4.60;;;;;;;-148.88;85.83;76770.63;5034728;28;20498;-84
2023/04/30 08:52:53;;;;;;;10.52;4.60;;;;;;;-148.88;86.21;76752.31;5033765;28;20029;-85
2023/04/30 08:55:18;;;;;;;12.52;4.68;;;;;;;-148.88;85.97;76748.25;5034230;28;20083;-84
2023/04/30 08:57:43;;;;;;;16.85;4.78;;;;;;;-148.88;83.90;76732.00;5033978;28;20034;-84
2023/04/30 09:00:09;;;;;;;11.52;4.18;;;;;;;-148.88;85.00;76699.50;5032896;28;20101;-83
2023/04/30 09:02:39;;;;;;;12.20;4.13;;;;;;;-148.88;84.03;76667.00;5033716;28;20022;-84
2023/04/30 09:05:12;;;;;;;10.15;3.85;;;;;;;-148.88;78.89;76636.53;5033944;28;20064;-85
2023/04/30 09:07:40;;;;;;;6.10;2.73;;;;;;;-148.88;77.48;76630.44;5033985;28;20025;-85
2023/04/30 09:10:18;;;;;;;10.07;4.40;;;;;;;-148.88;81.09;76618.25;5034108;28;20345;-84
2023/04/30 09:12:57;;;;;;;10.82;4.20;;;;;;;-148.88;78.15;76610.13;5015578;28;20032;-84
2023/04/30 09:15:22;;;;;;;8.45;3.67;;;;;;;-148.88;74.33;76601.97;5033353;28;20071;-84
2023/04/30 09:17:47;;;;;;;10.50;3.95;;;;;;;-148.88;77.53;76561.34;5015613;28;20022;-86
2023/04/30 09:20:13;;;;;;;14.38;4.00;;;;;;;-148.88;77.21;76553.22;5034189;28;20030;-83
2023/04/30 09:22:40;;;;;;;10.20;4.03;;;;;;;-148.88;74.57;76565.41;5034028;28;20424;-84
2023/04/30 09:25:07;;;;;;;7.55;3.92;;;;;;;-148.88;74.72;76597.91;5034114;28;20036;-85
2023/04/30 09:27:32;;;;;;;9.07;3.50;;;;;;;-148.88;73.11;76601.97;5033953;28;20025;-83
2023/04/30 09:30:49;;;;;;;10.98;4.00;;;;;;;-148.88;73.79;76567.44;5018110;28;20032;-83
2023/04/30 09:33:15;;;;;;;10.15;4.07;;;;;;;-148.88;71.96;76601.97;5020599;28;20043;-82
2023/04/30 09:35:41;;;;;;;8.45;3.70;;;;;;;-148.88;69.02;76553.22;5034541;28;20108;-81
2023/04/30 09:38:07;;;;;;;10.32;4.10;;;;;;;-148.88;68.62;76502.44;5034050;28;20025;-82
2023/04/30 09:40:40;;;;;;;10.07;3.92;;;;;;;-148.88;68.43;76441.50;5034433;28;20152;-82
2023/04/30 09:43:06;;;;;;;9.93;3.73;;;;;;;-148.88;68.47;76451.66;5033800;28;20036;-84
2023/04/30 09:45:50;;;;;;;9.27;3.95;;;;;;;-148.88;68.65;76411.00;5034939;28;20336;-83
2023/04/30 09:48:22;;;;;;;7.60;3.22;;;;;;;-148.88;66.66;76382.56;5017179;28;20430;-83
2023/04/30 09:50:48;;;;;;;8.73;3.15;;;;;;;-148.88;64.01;76368.34;5035181;28;20123;-83
2023/04/30 09:53:16;;;;;;;8.10;3.45;;;;;;;-148.88;63.47;76433.38;5035223;28;20025;-84
2023/04/30 09:55:46;;;;;;;12.75;3.50;;;;;;;-148.88;67.07;76447.59;5035961;28;20087;-84
2023/04/30 09:58:13;;;;;;;9.68;3.70;;;;;;;-148.88;64.59;76431.34;5034998;28;20528;-83
2023/04/30 10:00:40;;;;;;;8.23;3.63;;;;;;;-148.88;68.98;76346.00;5034002;28;20029;-83
2023/04/30 10:03:10;;;;;;;13.52;3.60;;;;;;;-148.88;65.89;76402.88;5033233;28;20033;-83
2023/04/30 10:05:46;;;;;;;10.07;4.35;;;;;;;-148.88;66.74;76411.00;5033679;28;20111;-84
2023/04/30 10:08:27;;;;;;;9.05;3.70;;;;;;;-148.88;65.72;76386.63;5034219;28;20031;-84
2023/04/30 10:11:02;;;;;;;9.38;3.67;;;;;;;-148.88;63.33;76346.00;5033984;28;20507;-84
2023/04/30 10:13:31;;;;;;;9.75;3.10;;;;;;;-148.88;63.29;76317.56;5038852;28;20109;-84
2023/04/30 10:16:07;;;;;;;10.23;3.30;;;;;;;-148.88;61.77;76329.75;5021164;28;20036;-84
2023/04/30 10:18:35;;;;;;;8.48;3.13;;;;;;;-148.88;58.67;76232.25;5037806;28;20029;-84
2023/04/30 10:21:02;;;;;;;9.45;3.67;;;;;;;-148.88;58.91;76256.63;5037840;28;20116;-83
2023/04/30 10:23:29;;;;;;;8.23;3.30;;;;;;;-148.88;60.57;76211.94;5038849;28;20025;-82
2023/04/30 10:25:56;;;;;;;9.10;3.25;;;;;;;-148.88;58.27;76228.19;5020481;28;20021;-83
2023/04/30 10:28:22;;;;;;;9.10;3.10;;;;;;;-148.88;59.52;76159.13;5019765;28;20037;-81
2023/04/30 10:30:50;;;;;;;8.40;3.30;;;;;;;-148.88;57.63;76216.00;5037297;28;20029;-81
2023/04/30 10:33:27;;;;;;;8.82;3.30;;;;;;;-148.88;56.94;76195.69;5038026;28;20028;-82
2023/04/30 10:35:58;;;;;;;6.78;3.10;;;;;;;-148.88;59.01;76175.38;5037966;28;20111;-82
2023/04/30 10:38:26;;;;;;;6.88;2.65;;;;;;;-148.88;56.23;76175.38;5036657;28;20053;-80
2023/04/30 10:40:57;;;;;;;6.43;2.90;;;;;;;-148.88;54.19;76199.75;5019213;28;20025;-82
2023/04/30 10:43:24;;;;;;;5.13;2.15;;;;;;;-148.88;53.49;76216.00;5037955;28;20025;-83
2023/04/30 10:45:49;;;;;;;5.43;2.83;;;;;;;-148.88;57.58;76179.44;5038915;28;20452;-84
2023/04/30 10:48:22;;;;;;;7.05;2.90;;;;;;;-148.88;54.90;76159.13;5021586;28;20052;-83
2023/04/30 10:50:50;;;;;;;5.30;2.55;;;;;;;-148.88;55.54;76195.69;5021166;28;20479;-85
2023/04/30 10:53:19;;;;;;;6.50;2.85;;;;;;;-148.88;55.17;76226.16;5039432;28;20037;-84
2023/04/30 10:55:53;;;;;;;6.28;2.95;;;;;;;-148.88;54.87;76256.63;5037888;28;20025;-84
2023/04/30 10:58:29;;;;;;;10.18;2.80;;;;;;;-148.88;57.40;76209.91;5020390;28;20017;-83
2023/04/30 11:01:03;;;;;;;5.97;2.45;;;;;;;-148.88;56.60;76130.69;5037648;28;20561;-83
2023/04/30 11:03:29;;;;;;;7.65;2.60;;;;;;;-148.88;52.37;76179.44;5037115;28;20468;-83
2023/04/30 11:05:55;;;;;;;7.60;2.35;;;;;;;-148.88;55.06;76171.31;5036976;28;20029;-84
2023/04/30 11:08:37;;;;;;;5.93;2.60;;;;;;;-148.88;56.24;76079.88;5036887;28;20051;-84
2023/04/30 11:11:06;;;;;;;6.75;2.70;;;;;;;-148.88;53.60;76079.88;5037156;28;20018;-84